sensor_id;sensor_type;location;lat;lon;timestamp;P1;durP1;ratioP1;P2;durP2;ratioP2
3689;SDS011;1861;50.240;8.596;2023-04-01T00:00:52;3.17;;;0.90;;
3689;SDS011;1861;50.240;8.596;2023-04-01T00:03:22;2.20;;;1.10;;
3689;SDS011;1861;50.240;8.596;2023-04-01T00:05:53;4.77;;;1.20;;
3689;SDS011;1861;50.240;8.596;2023-04-01T00:08:22;6.33;;;1.00;;
3689;SDS011;1861;50.240;8.596;2023-04-01T00:10:51;5.77;;;1.10;;
3689;SDS011;1861;50.240;8.596;2023-04-01T00:13:19;2.67;;;0.77;;
3689;SDS011;1861;50.240;8.596;2023-04-01T00:15:47;1.10;;;0.90;;
3689;SDS011;1861;50.240;8.596;2023-04-01T00:18:16;10.33;;;0.90;;
3689;SDS011;1861;50.240;8.596;2023-04-01T00:20:44;2.10;;;1.07;;
3689;SDS011;1861;50.240;8.596;2023-04-01T00:23:14;3.67;;;1.47;;
3689;SDS011;1861;50.240;8.596;2023-04-01T00:25:43;3.23;;;1.57;;
3689;SDS011;1861;50.240;8.596;2023-04-01T00:28:15;5.57;;;1.17;;
3689;SDS011;1861;50.240;8.596;2023-04-01T00:30:43;5.07;;;1.23;;
3689;SDS011;1861;50.240;8.596;2023-04-01T00:33:12;6.83;;;1.10;;
3689;SDS011;1861;50.240;8.596;2023-04-01T00:35:40;2.83;;;1.07;;
3689;SDS011;1861;50.240;8.596;2023-04-01T00:38:08;2.00;;;0.90;;
3689;SDS011;1861;50.240;8.596;2023-04-01T00:40:39;3.80;;;0.80;;
3689;SDS011;1861;50.240;8.596;2023-04-01T00:43:10;2.53;;;1.07;;
3689;SDS011;1861;50.240;8.596;2023-04-01T00:45:41;5.17;;;0.93;;
3689;SDS011;1861;50.240;8.596;2023-04-01T00:48:10;4.40;;;0.83;;
3689;SDS011;1861;50.240;8.596;2023-04-01T00:50:42;10.40;;;1.93;;
3689;SDS011;1861;50.240;8.596;2023-04-01T00:53:13;5.67;;;1.30;;
3689;SDS011;1861;50.240;8.596;2023-04-01T00:55:45;3.73;;;1.03;;
3689;SDS011;1861;50.240;8.596;2023-04-01T00:58:18;1.03;;;0.83;;
3689;SDS011;1861;50.240;8.596;2023-04-01T01:00:50;2.93;;;0.97;;
3689;SDS011;1861;50.240;8.596;2023-04-01T01:03:20;3.73;;;0.70;;
3689;SDS011;1861;50.240;8.596;2023-04-01T01:06:01;5.00;;;1.00;;
3689;SDS011;1861;50.240;8.596;2023-04-01T01:08:39;6.83;;;0.90;;
3689;SDS011;1861;50.240;8.596;2023-04-01T01:11:22;2.50;;;0.87;;
3689;SDS011;1861;50.240;8.596;2023-04-01T01:14:09;2.20;;;0.90;;
3689;SDS011;1861;50.240;8.596;2023-04-01T01:16:45;1.37;;;0.90;;
3689;SDS011;1861;50.240;8.596;2023-04-01T01:19:26;3.00;;;1.00;;
3689;SDS011;1861;50.240;8.596;2023-04-01T01:22:14;2.80;;;0.73;;
3689;SDS011;1861;50.240;8.596;2023-04-01T01:25:04;7.20;;;1.00;;
3689;SDS011;1861;50.240;8.596;2023-04-01T01:27:49;1.33;;;0.90;;
3689;SDS011;1861;50.240;8.596;2023-04-01T01:30:33;5.93;;;1.23;;
3689;SDS011;1861;50.240;8.596;2023-04-01T01:33:08;2.50;;;0.90;;
3689;SDS011;1861;50.240;8.596;2023-04-01T01:36:01;1.83;;;0.73;;
3689;SDS011;1861;50.240;8.596;2023-04-01T01:38:32;3.37;;;0.90;;
3689;SDS011;1861;50.240;8.596;2023-04-01T01:41:04;2.53;;;0.93;;
3689;SDS011;1861;50.240;8.596;2023-04-01T01:43:35;2.70;;;0.87;;
3689;SDS011;1861;50.240;8.596;2023-04-01T01:46:08;2.70;;;1.00;;
3689;SDS011;1861;50.240;8.596;2023-04-01T01:48:39;2.80;;;0.87;;
3689;SDS011;1861;50.240;8.596;2023-04-01T01:51:11;4.07;;;0.93;;
3689;SDS011;1861;50.240;8.596;2023-04-01T01:53:39;5.97;;;0.97;;
3689;SDS011;1861;50.240;8.596;2023-04-01T01:56:09;8.37;;;1.03;;
3689;SDS011;1861;50.240;8.596;2023-04-01T01:58:42;2.80;;;1.07;;
3689;SDS011;1861;50.240;8.596;2023-04-01T02:01:14;1.20;;;0.77;;
3689;SDS011;1861;50.240;8.596;2023-04-01T02:03:46;7.63;;;1.00;;
3689;SDS011;1861;50.240;8.596;2023-04-01T02:06:17;2.30;;;0.90;;
3689;SDS011;1861;50.240;8.596;2023-04-01T02:08:49;2.20;;;0.90;;
3689;SDS011;1861;50.240;8.596;2023-04-01T02:11:20;2.00;;;0.87;;
3689;SDS011;1861;50.240;8.596;2023-04-01T02:13:54;5.10;;;1.23;;
3689;SDS011;1861;50.240;8.596;2023-04-01T02:16:26;3.77;;;0.90;;
3689;SDS011;1861;50.240;8.596;2023-04-01T02:18:56;3.13;;;0.83;;
3689;SDS011;1861;50.240;8.596;2023-04-01T02:21:29;3.33;;;0.80;;
3689;SDS011;1861;50.240;8.596;2023-04-01T02:24:00;1.50;;;0.80;;
3689;SDS011;1861;50.240;8.596;2023-04-01T02:26:32;1.27;;;0.70;;
3689;SDS011;1861;50.240;8.596;2023-04-01T02:29:02;1.60;;;0.90;;
3689;SDS011;1861;50.240;8.596;2023-04-01T02:31:32;2.57;;;1.00;;
3689;SDS011;1861;50.240;8.596;2023-04-01T02:34:01;1.50;;;0.87;;
3689;SDS011;1861;50.240;8.596;2023-04-01T02:36:32;1.60;;;0.93;;
3689;SDS011;1861;50.240;8.596;2023-04-01T02:39:02;1.57;;;0.70;;
3689;SDS011;1861;50.240;8.596;2023-04-01T02:41:31;1.33;;;0.90;;
3689;SDS011;1861;50.240;8.596;2023-04-01T02:43:59;1.63;;;0.60;;
3689;SDS011;1861;50.240;8.596;2023-04-01T02:46:27;4.70;;;0.80;;
3689;SDS011;1861;50.240;8.596;2023-04-01T02:48:55;1.20;;;0.90;;
3689;SDS011;1861;50.240;8.596;2023-04-01T02:51:23;2.97;;;0.80;;
3689;SDS011;1861;50.240;8.596;2023-04-01T02:53:54;2.10;;;0.93;;
3689;SDS011;1861;50.240;8.596;2023-04-01T02:56:22;4.63;;;0.70;;
3689;SDS011;1861;50.240;8.596;2023-04-01T02:58:50;4.50;;;1.03;;
3689;SDS011;1861;50.240;8.596;2023-04-01T03:01:18;2.67;;;1.10;;
3689;SDS011;1861;50.240;8.596;2023-04-01T03:03:46;5.50;;;0.70;;
3689;SDS011;1861;50.240;8.596;2023-04-01T03:06:15;3.60;;;0.80;;
3689;SDS011;1861;50.240;8.596;2023-04-01T03:08:44;3.90;;;1.00;;
3689;SDS011;1861;50.240;8.596;2023-04-01T03:11:13;4.17;;;0.87;;
3689;SDS011;1861;50.240;8.596;2023-04-01T03:13:42;1.17;;;0.73;;
3689;SDS011;1861;50.240;8.596;2023-04-01T03:16:10;4.10;;;0.87;;
3689;SDS011;1861;50.240;8.596;2023-04-01T03:18:39;1.63;;;0.70;;
3689;SDS011;1861;50.240;8.596;2023-04-01T03:21:14;2.03;;;0.80;;
3689;SDS011;1861;50.240;8.596;2023-04-01T03:23:43;2.43;;;0.80;;
3689;SDS011;1861;50.240;8.596;2023-04-01T03:26:11;2.73;;;0.70;;
3689;SDS011;1861;50.240;8.596;2023-04-01T03:28:42;1.07;;;0.63;;
3689;SDS011;1861;50.240;8.596;2023-04-01T03:31:11;6.60;;;0.90;;
3689;SDS011;1861;50.240;8.596;2023-04-01T03:33:46;1.67;;;0.70;;
3689;SDS011;1861;50.240;8.596;2023-04-01T03:36:14;1.77;;;0.70;;
3689;SDS011;1861;50.240;8.596;2023-04-01T03:38:42;1.40;;;0.80;;
3689;SDS011;1861;50.240;8.596;2023-04-01T03:41:17;8.93;;;0.90;;
3689;SDS011;1861;50.240;8.596;2023-04-01T03:43:46;4.67;;;1.03;;
3689;SDS011;1861;50.240;8.596;2023-04-01T03:46:16;4.37;;;1.00;;
3689;SDS011;1861;50.240;8.596;2023-04-01T03:48:45;1.33;;;1.00;;
3689;SDS011;1861;50.240;8.596;2023-04-01T03:51:14;2.20;;;0.80;;
3689;SDS011;1861;50.240;8.596;2023-04-01T03:53:42;1.57;;;0.67;;
3689;SDS011;1861;50.240;8.596;2023-04-01T03:56:10;7.73;;;0.90;;
3689;SDS011;1861;50.240;8.596;2023-04-01T03:58:40;3.97;;;0.90;;
3689;SDS011;1861;50.240;8.596;2023-04-01T04:01:15;1.60;;;0.73;;
3689;SDS011;1861;50.240;8.596;2023-04-01T04:03:46;1.97;;;0.70;;
3689;SDS011;1861;50.240;8.596;2023-04-01T04:06:16;5.00;;;2.30;;
3689;SDS011;1861;50.240;8.596;2023-04-01T04:08:46;1.87;;;0.80;;
3689;SDS011;1861;50.240;8.596;2023-04-01T04:11:14;6.50;;;1.13;;
3689;SDS011;1861;50.240;8.596;2023-04-01T04:13:44;3.93;;;0.90;;
3689;SDS011;1861;50.240;8.596;2023-04-01T04:16:15;1.47;;;0.70;;
3689;SDS011;1861;50.240;8.596;2023-04-01T04:18:48;2.10;;;0.60;;
3689;SDS011;1861;50.240;8.596;2023-04-01T04:21:17;3.43;;;0.80;;
3689;SDS011;1861;50.240;8.596;2023-04-01T04:23:45;2.63;;;1.07;;
3689;SDS011;1861;50.240;8.596;2023-04-01T04:26:15;2.47;;;0.80;;
3689;SDS011;1861;50.240;8.596;2023-04-01T04:28:53;1.30;;;0.70;;
3689;SDS011;1861;50.240;8.596;2023-04-01T04:31:21;2.73;;;0.70;;
3689;SDS011;1861;50.240;8.596;2023-04-01T04:33:53;1.83;;;1.07;;
3689;SDS011;1861;50.240;8.596;2023-04-01T04:36:22;2.30;;;0.97;;
3689;SDS011;1861;50.240;8.596;2023-04-01T04:38:51;6.70;;;1.23;;
3689;SDS011;1861;50.240;8.596;2023-04-01T04:41:19;1.90;;;0.70;;
3689;SDS011;1861;50.240;8.596;2023-04-01T04:43:49;2.10;;;0.70;;
3689;SDS011;1861;50.240;8.596;2023-04-01T04:46:20;2.47;;;0.80;;
3689;SDS011;1861;50.240;8.596;2023-04-01T04:48:53;1.27;;;0.87;;
3689;SDS011;1861;50.240;8.596;2023-04-01T04:51:21;3.73;;;0.90;;
3689;SDS011;1861;50.240;8.596;2023-04-01T04:53:50;2.23;;;1.00;;
3689;SDS011;1861;50.240;8.596;2023-04-01T04:56:26;3.00;;;0.93;;
3689;SDS011;1861;50.240;8.596;2023-04-01T04:59:03;1.97;;;0.83;;
3689;SDS011;1861;50.240;8.596;2023-04-01T05:01:42;1.17;;;0.80;;
3689;SDS011;1861;50.240;8.596;2023-04-01T05:04:10;1.93;;;0.70;;
3689;SDS011;1861;50.240;8.596;2023-04-01T05:06:38;4.23;;;0.80;;
3689;SDS011;1861;50.240;8.596;2023-04-01T05:09:06;1.33;;;0.80;;
3689;SDS011;1861;50.240;8.596;2023-04-01T05:11:35;0.80;;;0.53;;
3689;SDS011;1861;50.240;8.596;2023-04-01T05:14:03;1.73;;;0.70;;
3689;SDS011;1861;50.240;8.596;2023-04-01T05:16:32;3.27;;;0.73;;
3689;SDS011;1861;50.240;8.596;2023-04-01T05:19:01;2.60;;;0.83;;
3689;SDS011;1861;50.240;8.596;2023-04-01T05:21:30;4.57;;;0.90;;
3689;SDS011;1861;50.240;8.596;2023-04-01T05:23:59;3.10;;;0.80;;
3689;SDS011;1861;50.240;8.596;2023-04-01T05:26:29;1.40;;;0.67;;
3689;SDS011;1861;50.240;8.596;2023-04-01T05:28:58;1.10;;;0.70;;
3689;SDS011;1861;50.240;8.596;2023-04-01T05:31:27;2.00;;;0.60;;
3689;SDS011;1861;50.240;8.596;2023-04-01T05:33:56;2.87;;;0.80;;
3689;SDS011;1861;50.240;8.596;2023-04-01T05:36:26;1.07;;;0.70;;
3689;SDS011;1861;50.240;8.596;2023-04-01T05:38:55;3.33;;;0.87;;
3689;SDS011;1861;50.240;8.596;2023-04-01T05:41:25;2.33;;;0.90;;
3689;SDS011;1861;50.240;8.596;2023-04-01T05:43:53;1.43;;;0.90;;
3689;SDS011;1861;50.240;8.596;2023-04-01T05:46:51;3.63;;;0.90;;
3689;SDS011;1861;50.240;8.596;2023-04-01T05:49:21;3.20;;;0.70;;
3689;SDS011;1861;50.240;8.596;2023-04-01T05:51:54;3.60;;;0.70;;
3689;SDS011;1861;50.240;8.596;2023-04-01T05:54:22;6.03;;;1.07;;
3689;SDS011;1861;50.240;8.596;2023-04-01T05:56:50;3.37;;;1.10;;
3689;SDS011;1861;50.240;8.596;2023-04-01T05:59:19;1.83;;;0.73;;
3689;SDS011;1861;50.240;8.596;2023-04-01T06:01:47;3.60;;;1.20;;
3689;SDS011;1861;50.240;8.596;2023-04-01T06:04:16;1.97;;;0.97;;
3689;SDS011;1861;50.240;8.596;2023-04-01T06:06:45;1.53;;;0.87;;
3689;SDS011;1861;50.240;8.596;2023-04-01T06:09:15;13.33;;;0.90;;
3689;SDS011;1861;50.240;8.596;2023-04-01T06:11:54;1.17;;;0.60;;
3689;SDS011;1861;50.240;8.596;2023-04-01T06:14:59;5.33;;;1.10;;
3689;SDS011;1861;50.240;8.596;2023-04-01T06:17:50;1.47;;;0.60;;
3689;SDS011;1861;50.240;8.596;2023-04-01T06:20:31;1.10;;;0.60;;
3689;SDS011;1861;50.240;8.596;2023-04-01T06:23:15;2.47;;;1.10;;
3689;SDS011;1861;50.240;8.596;2023-04-01T06:25:58;2.40;;;0.70;;
3689;SDS011;1861;50.240;8.596;2023-04-01T06:28:57;3.67;;;1.13;;
3689;SDS011;1861;50.240;8.596;2023-04-01T06:31:50;1.73;;;0.63;;
3689;SDS011;1861;50.240;8.596;2023-04-01T06:41:11;0.70;;;0.60;;
3689;SDS011;1861;50.240;8.596;2023-04-01T06:44:07;1.23;;;0.63;;
3689;SDS011;1861;50.240;8.596;2023-04-01T06:47:06;0.70;;;0.60;;
3689;SDS011;1861;50.240;8.596;2023-04-01T06:50:07;2.77;;;0.80;;
3689;SDS011;1861;50.240;8.596;2023-04-01T06:52:56;1.73;;;0.50;;
3689;SDS011;1861;50.240;8.596;2023-04-01T06:55:51;1.23;;;0.70;;
3689;SDS011;1861;50.240;8.596;2023-04-01T06:58:51;1.47;;;0.60;;
3689;SDS011;1861;50.240;8.596;2023-04-01T07:01:22;2.20;;;0.80;;
3689;SDS011;1861;50.240;8.596;2023-04-01T07:03:55;3.10;;;0.90;;
3689;SDS011;1861;50.240;8.596;2023-04-01T07:06:28;1.20;;;0.70;;
3689;SDS011;1861;50.240;8.596;2023-04-01T07:09:02;1.83;;;0.60;;
3689;SDS011;1861;50.240;8.596;2023-04-01T07:11:56;1.00;;;0.63;;
3689;SDS011;1861;50.240;8.596;2023-04-01T07:14:48;0.83;;;0.50;;
3689;SDS011;1861;50.240;8.596;2023-04-01T07:17:17;0.63;;;0.50;;
3689;SDS011;1861;50.240;8.596;2023-04-01T07:19:50;2.37;;;0.60;;
3689;SDS011;1861;50.240;8.596;2023-04-01T07:22:26;0.73;;;0.50;;
3689;SDS011;1861;50.240;8.596;2023-04-01T07:25:05;2.93;;;0.90;;
3689;SDS011;1861;50.240;8.596;2023-04-01T07:27:42;0.70;;;0.70;;
3689;SDS011;1861;50.240;8.596;2023-04-01T07:30:14;1.43;;;0.60;;
3689;SDS011;1861;50.240;8.596;2023-04-01T07:32:45;1.17;;;0.60;;
3689;SDS011;1861;50.240;8.596;2023-04-01T07:35:21;1.80;;;0.60;;
3689;SDS011;1861;50.240;8.596;2023-04-01T07:37:59;2.87;;;0.93;;
3689;SDS011;1861;50.240;8.596;2023-04-01T07:40:39;1.83;;;0.70;;
3689;SDS011;1861;50.240;8.596;2023-04-01T07:43:17;4.10;;;0.90;;
3689;SDS011;1861;50.240;8.596;2023-04-01T07:46:19;2.30;;;0.70;;
3689;SDS011;1861;50.240;8.596;2023-04-01T07:48:58;4.07;;;0.80;;
3689;SDS011;1861;50.240;8.596;2023-04-01T07:51:31;3.03;;;0.60;;
3689;SDS011;1861;50.240;8.596;2023-04-01T07:54:06;2.10;;;0.50;;
3689;SDS011;1861;50.240;8.596;2023-04-01T07:56:41;1.53;;;0.60;;
3689;SDS011;1861;50.240;8.596;2023-04-01T07:59:26;2.37;;;0.80;;
3689;SDS011;1861;50.240;8.596;2023-04-01T08:02:19;1.97;;;0.67;;
3689;SDS011;1861;50.240;8.596;2023-04-01T08:04:56;2.20;;;0.83;;
3689;SDS011;1861;50.240;8.596;2023-04-01T08:07:35;1.87;;;0.63;;
3689;SDS011;1861;50.240;8.596;2023-04-01T08:10:39;2.30;;;0.60;;
3689;SDS011;1861;50.240;8.596;2023-04-01T08:13:34;0.50;;;0.40;;
3689;SDS011;1861;50.240;8.596;2023-04-01T08:16:29;1.10;;;0.57;;
3689;SDS011;1861;50.240;8.596;2023-04-01T08:19:09;2.13;;;0.60;;
3689;SDS011;1861;50.240;8.596;2023-04-01T08:21:52;1.83;;;0.60;;
3689;SDS011;1861;50.240;8.596;2023-04-01T08:24:25;1.23;;;0.50;;
3689;SDS011;1861;50.240;8.596;2023-04-01T08:27:16;0.80;;;0.53;;
3689;SDS011;1861;50.240;8.596;2023-04-01T08:29:51;2.33;;;1.13;;
3689;SDS011;1861;50.240;8.596;2023-04-01T08:32:25;0.97;;;0.53;;
3689;SDS011;1861;50.240;8.596;2023-04-01T08:35:01;0.77;;;0.47;;
3689;SDS011;1861;50.240;8.596;2023-04-01T08:37:38;1.83;;;0.83;;
3689;SDS011;1861;50.240;8.596;2023-04-01T08:40:17;1.63;;;0.50;;
3689;SDS011;1861;50.240;8.596;2023-04-01T08:43:03;1.97;;;0.57;;
3689;SDS011;1861;50.240;8.596;2023-04-01T08:48:40;1.80;;;0.57;;
3689;SDS011;1861;50.240;8.596;2023-04-01T08:54:35;1.50;;;0.60;;
3689;SDS011;1861;50.240;8.596;2023-04-01T08:57:19;0.90;;;0.63;;
3689;SDS011;1861;50.240;8.596;2023-04-01T09:00:27;0.73;;;0.50;;
3689;SDS011;1861;50.240;8.596;2023-04-01T09:03:14;1.30;;;0.50;;
3689;SDS011;1861;50.240;8.596;2023-04-01T09:06:20;0.60;;;0.50;;
3689;SDS011;1861;50.240;8.596;2023-04-01T09:09:05;1.80;;;0.60;;
3689;SDS011;1861;50.240;8.596;2023-04-01T09:12:00;3.07;;;0.70;;
3689;SDS011;1861;50.240;8.596;2023-04-01T09:14:54;0.87;;;0.50;;
3689;SDS011;1861;50.240;8.596;2023-04-01T09:17:48;1.10;;;0.50;;
3689;SDS011;1861;50.240;8.596;2023-04-01T09:20:46;0.60;;;0.47;;
3689;SDS011;1861;50.240;8.596;2023-04-01T09:23:33;0.80;;;0.57;;
3689;SDS011;1861;50.240;8.596;2023-04-01T09:26:34;0.90;;;0.53;;
3689;SDS011;1861;50.240;8.596;2023-04-01T09:29:29;2.20;;;0.43;;
3689;SDS011;1861;50.240;8.596;2023-04-01T09:32:14;0.63;;;0.40;;
3689;SDS011;1861;50.240;8.596;2023-04-01T09:35:20;0.70;;;0.50;;
3689;SDS011;1861;50.240;8.596;2023-04-01T09:37:53;0.90;;;0.50;;
3689;SDS011;1861;50.240;8.596;2023-04-01T09:40:33;1.23;;;0.50;;
3689;SDS011;1861;50.240;8.596;2023-04-01T09:43:30;0.70;;;0.50;;
3689;SDS011;1861;50.240;8.596;2023-04-01T09:46:14;0.97;;;0.50;;
3689;SDS011;1861;50.240;8.596;2023-04-01T09:52:02;0.57;;;0.40;;
3689;SDS011;1861;50.240;8.596;2023-04-01T09:54:49;1.07;;;0.40;;
3689;SDS011;1861;50.240;8.596;2023-04-01T09:57:33;0.80;;;0.50;;
3689;SDS011;1861;50.240;8.596;2023-04-01T10:04:04;1.07;;;0.60;;
3689;SDS011;1861;50.240;8.596;2023-04-01T10:06:54;1.33;;;0.60;;
3689;SDS011;1861;50.240;8.596;2023-04-01T10:22:27;0.70;;;0.50;;
3689;SDS011;1861;50.240;8.596;2023-04-01T10:25:22;1.37;;;0.60;;
3689;SDS011;1861;50.240;8.596;2023-04-01T10:31:47;0.50;;;0.40;;
3689;SDS011;1861;50.240;8.596;2023-04-01T10:34:42;1.03;;;0.60;;
3689;SDS011;1861;50.240;8.596;2023-04-01T10:37:29;0.70;;;0.50;;
3689;SDS011;1861;50.240;8.596;2023-04-01T10:40:19;1.37;;;0.50;;
3689;SDS011;1861;50.240;8.596;2023-04-01T10:49:47;4.50;;;0.43;;
3689;SDS011;1861;50.240;8.596;2023-04-01T10:52:45;0.60;;;0.50;;
3689;SDS011;1861;50.240;8.596;2023-04-01T10:59:28;0.60;;;0.50;;
3689;SDS011;1861;50.240;8.596;2023-04-01T11:06:38;0.83;;;0.50;;
3689;SDS011;1861;50.240;8.596;2023-04-01T11:13:00;0.90;;;0.90;;
3689;SDS011;1861;50.240;8.596;2023-04-01T11:15:59;1.47;;;0.63;;
3689;SDS011;1861;50.240;8.596;2023-04-01T11:19:02;0.80;;;0.60;;
3689;SDS011;1861;50.240;8.596;2023-04-01T11:21:59;0.60;;;0.40;;
3689;SDS011;1861;50.240;8.596;2023-04-01T11:28:14;0.60;;;0.40;;
3689;SDS011;1861;50.240;8.596;2023-04-01T11:31:15;0.87;;;0.50;;
3689;SDS011;1861;50.240;8.596;2023-04-01T11:34:24;0.60;;;0.57;;
3689;SDS011;1861;50.240;8.596;2023-04-01T11:37:06;0.60;;;0.50;;
3689;SDS011;1861;50.240;8.596;2023-04-01T11:40:05;1.30;;;0.60;;
3689;SDS011;1861;50.240;8.596;2023-04-01T11:43:06;0.70;;;0.53;;
3689;SDS011;1861;50.240;8.596;2023-04-01T11:46:15;1.33;;;0.60;;
3689;SDS011;1861;50.240;8.596;2023-04-01T11:48:53;0.90;;;0.60;;
3689;SDS011;1861;50.240;8.596;2023-04-01T11:51:32;0.60;;;0.57;;
3689;SDS011;1861;50.240;8.596;2023-04-01T11:54:32;0.80;;;0.57;;
3689;SDS011;1861;50.240;8.596;2023-04-01T11:57:17;1.37;;;0.50;;
3689;SDS011;1861;50.240;8.596;2023-04-01T12:00:05;3.13;;;0.60;;
3689;SDS011;1861;50.240;8.596;2023-04-01T12:02:50;0.50;;;0.40;;
3689;SDS011;1861;50.240;8.596;2023-04-01T12:05:36;1.10;;;0.60;;
3689;SDS011;1861;50.240;8.596;2023-04-01T12:08:12;0.70;;;0.60;;
3689;SDS011;1861;50.240;8.596;2023-04-01T12:10:51;1.20;;;0.70;;
3689;SDS011;1861;50.240;8.596;2023-04-01T12:13:28;0.63;;;0.60;;
3689;SDS011;1861;50.240;8.596;2023-04-01T12:16:07;0.80;;;0.70;;
3689;SDS011;1861;50.240;8.596;2023-04-01T12:18:48;2.80;;;0.53;;
3689;SDS011;1861;50.240;8.596;2023-04-01T12:21:22;0.60;;;0.50;;
3689;SDS011;1861;50.240;8.596;2023-04-01T12:23:58;0.60;;;0.50;;
3689;SDS011;1861;50.240;8.596;2023-04-01T12:26:46;0.70;;;0.60;;
3689;SDS011;1861;50.240;8.596;2023-04-01T12:29:36;0.80;;;0.50;;
3689;SDS011;1861;50.240;8.596;2023-04-01T12:32:19;0.90;;;0.70;;
3689;SDS011;1861;50.240;8.596;2023-04-01T12:37:54;0.67;;;0.50;;
3689;SDS011;1861;50.240;8.596;2023-04-01T12:40:37;1.07;;;0.60;;
3689;SDS011;1861;50.240;8.596;2023-04-01T12:43:40;0.60;;;0.50;;
3689;SDS011;1861;50.240;8.596;2023-04-01T12:46:19;0.80;;;0.70;;
3689;SDS011;1861;50.240;8.596;2023-04-01T12:52:00;2.83;;;0.70;;
3689;SDS011;1861;50.240;8.596;2023-04-01T12:54:46;0.70;;;0.60;;
3689;SDS011;1861;50.240;8.596;2023-04-01T12:57:42;1.00;;;0.60;;
3689;SDS011;1861;50.240;8.596;2023-04-01T13:00:46;0.70;;;0.60;;
3689;SDS011;1861;50.240;8.596;2023-04-01T13:03:40;1.50;;;0.70;;
3689;SDS011;1861;50.240;8.596;2023-04-01T13:06:23;0.60;;;0.50;;
3689;SDS011;1861;50.240;8.596;2023-04-01T13:09:02;0.63;;;0.60;;
3689;SDS011;1861;50.240;8.596;2023-04-01T13:11:47;0.70;;;0.50;;
3689;SDS011;1861;50.240;8.596;2023-04-01T13:14:36;0.80;;;0.67;;
3689;SDS011;1861;50.240;8.596;2023-04-01T13:17:20;0.63;;;0.50;;
3689;SDS011;1861;50.240;8.596;2023-04-01T13:19:53;0.80;;;0.50;;
3689;SDS011;1861;50.240;8.596;2023-04-01T13:22:35;0.70;;;0.50;;
3689;SDS011;1861;50.240;8.596;2023-04-01T13:25:15;0.90;;;0.60;;
3689;SDS011;1861;50.240;8.596;2023-04-01T13:27:54;1.67;;;0.60;;
3689;SDS011;1861;50.240;8.596;2023-04-01T13:30:30;1.37;;;0.60;;
3689;SDS011;1861;50.240;8.596;2023-04-01T13:33:10;1.00;;;0.50;;
3689;SDS011;1861;50.240;8.596;2023-04-01T13:35:45;0.97;;;0.63;;
3689;SDS011;1861;50.240;8.596;2023-04-01T13:38:31;0.50;;;0.40;;
3689;SDS011;1861;50.240;8.596;2023-04-01T13:41:13;0.80;;;0.57;;
3689;SDS011;1861;50.240;8.596;2023-04-01T13:43:51;0.67;;;0.60;;
3689;SDS011;1861;50.240;8.596;2023-04-01T13:46:31;0.60;;;0.60;;
3689;SDS011;1861;50.240;8.596;2023-04-01T13:49:20;0.80;;;0.50;;
3689;SDS011;1861;50.240;8.596;2023-04-01T13:52:27;0.70;;;0.50;;
3689;SDS011;1861;50.240;8.596;2023-04-01T13:55:14;4.20;;;0.70;;
3689;SDS011;1861;50.240;8.596;2023-04-01T13:58:02;0.80;;;0.60;;
3689;SDS011;1861;50.240;8.596;2023-04-01T14:00:45;1.10;;;0.70;;
3689;SDS011;1861;50.240;8.596;2023-04-01T14:03:43;0.60;;;0.50;;
3689;SDS011;1861;50.240;8.596;2023-04-01T14:06:33;3.60;;;0.63;;
3689;SDS011;1861;50.240;8.596;2023-04-01T14:12:04;0.73;;;0.70;;
3689;SDS011;1861;50.240;8.596;2023-04-01T14:14:40;0.80;;;0.70;;
3689;SDS011;1861;50.240;8.596;2023-04-01T14:17:25;0.90;;;0.60;;
3689;SDS011;1861;50.240;8.596;2023-04-01T14:20:13;0.87;;;0.70;;
3689;SDS011;1861;50.240;8.596;2023-04-01T14:23:09;0.60;;;0.50;;
3689;SDS011;1861;50.240;8.596;2023-04-01T14:29:15;0.70;;;0.50;;
3689;SDS011;1861;50.240;8.596;2023-04-01T14:31:54;0.80;;;0.67;;
3689;SDS011;1861;50.240;8.596;2023-04-01T14:34:34;0.70;;;0.50;;
3689;SDS011;1861;50.240;8.596;2023-04-01T14:37:23;0.60;;;0.60;;
3689;SDS011;1861;50.240;8.596;2023-04-01T14:40:20;0.80;;;0.60;;
3689;SDS011;1861;50.240;8.596;2023-04-01T14:42:55;0.97;;;0.47;;
3689;SDS011;1861;50.240;8.596;2023-04-01T14:48:32;1.47;;;0.60;;
3689;SDS011;1861;50.240;8.596;2023-04-01T14:51:03;0.83;;;0.70;;
3689;SDS011;1861;50.240;8.596;2023-04-01T14:53:38;0.60;;;0.50;;
3689;SDS011;1861;50.240;8.596;2023-04-01T14:56:13;0.60;;;0.50;;
3689;SDS011;1861;50.240;8.596;2023-04-01T14:59:07;0.60;;;0.50;;
3689;SDS011;1861;50.240;8.596;2023-04-01T15:01:40;0.73;;;0.53;;
3689;SDS011;1861;50.240;8.596;2023-04-01T15:04:25;0.60;;;0.60;;
3689;SDS011;1861;50.240;8.596;2023-04-01T15:07:19;0.50;;;0.40;;
3689;SDS011;1861;50.240;8.596;2023-04-01T15:09:58;0.60;;;0.57;;
3689;SDS011;1861;50.240;8.596;2023-04-01T15:12:36;1.07;;;0.60;;
3689;SDS011;1861;50.240;8.596;2023-04-01T15:15:16;1.83;;;0.60;;
3689;SDS011;1861;50.240;8.596;2023-04-01T15:17:58;0.60;;;0.53;;
3689;SDS011;1861;50.240;8.596;2023-04-01T15:23:47;0.83;;;0.60;;
3689;SDS011;1861;50.240;8.596;2023-04-01T15:26:29;0.60;;;0.60;;
3689;SDS011;1861;50.240;8.596;2023-04-01T15:32:17;0.77;;;0.50;;
3689;SDS011;1861;50.240;8.596;2023-04-01T15:34:53;0.87;;;0.73;;
3689;SDS011;1861;50.240;8.596;2023-04-01T15:37:30;0.60;;;0.50;;
3689;SDS011;1861;50.240;8.596;2023-04-01T15:40:06;1.80;;;0.60;;
3689;SDS011;1861;50.240;8.596;2023-04-01T15:42:46;0.60;;;0.50;;
3689;SDS011;1861;50.240;8.596;2023-04-01T15:45:33;0.60;;;0.50;;
3689;SDS011;1861;50.240;8.596;2023-04-01T15:51:11;0.60;;;0.50;;
3689;SDS011;1861;50.240;8.596;2023-04-01T15:57:03;0.90;;;0.50;;
3689;SDS011;1861;50.240;8.596;2023-04-01T15:59:47;0.60;;;0.50;;
3689;SDS011;1861;50.240;8.596;2023-04-01T16:02:41;0.80;;;0.63;;
3689;SDS011;1861;50.240;8.596;2023-04-01T16:08:23;0.73;;;0.63;;
3689;SDS011;1861;50.240;8.596;2023-04-01T16:11:18;1.17;;;0.90;;
3689;SDS011;1861;50.240;8.596;2023-04-01T16:13:57;0.70;;;0.50;;
3689;SDS011;1861;50.240;8.596;2023-04-01T16:16:39;0.90;;;0.60;;
3689;SDS011;1861;50.240;8.596;2023-04-01T16:19:30;1.90;;;0.70;;
3689;SDS011;1861;50.240;8.596;2023-04-01T16:22:08;1.20;;;0.80;;
3689;SDS011;1861;50.240;8.596;2023-04-01T16:24:43;0.70;;;0.60;;
3689;SDS011;1861;50.240;8.596;2023-04-01T16:27:16;0.90;;;0.63;;
3689;SDS011;1861;50.240;8.596;2023-04-01T16:29:51;0.80;;;0.67;;
3689;SDS011;1861;50.240;8.596;2023-04-01T16:32:29;0.80;;;0.60;;
3689;SDS011;1861;50.240;8.596;2023-04-01T16:35:12;0.80;;;0.70;;
3689;SDS011;1861;50.240;8.596;2023-04-01T16:37:54;5.60;;;0.80;;
3689;SDS011;1861;50.240;8.596;2023-04-01T16:40:34;2.70;;;0.80;;
3689;SDS011;1861;50.240;8.596;2023-04-01T16:43:11;0.80;;;0.80;;
3689;SDS011;1861;50.240;8.596;2023-04-01T16:45:45;0.80;;;0.80;;
3689;SDS011;1861;50.240;8.596;2023-04-01T16:48:21;0.70;;;0.60;;
3689;SDS011;1861;50.240;8.596;2023-04-01T16:50:58;0.70;;;0.67;;
3689;SDS011;1861;50.240;8.596;2023-04-01T16:53:30;1.43;;;0.60;;
3689;SDS011;1861;50.240;8.596;2023-04-01T16:56:10;0.50;;;0.50;;
3689;SDS011;1861;50.240;8.596;2023-04-01T16:58:43;2.40;;;0.50;;
3689;SDS011;1861;50.240;8.596;2023-04-01T17:01:24;0.70;;;0.60;;
3689;SDS011;1861;50.240;8.596;2023-04-01T17:03:57;1.40;;;0.70;;
3689;SDS011;1861;50.240;8.596;2023-04-01T17:06:31;1.27;;;0.87;;
3689;SDS011;1861;50.240;8.596;2023-04-01T17:09:17;2.20;;;0.67;;
3689;SDS011;1861;50.240;8.596;2023-04-01T17:11:54;0.60;;;0.50;;
3689;SDS011;1861;50.240;8.596;2023-04-01T17:14:29;1.60;;;0.60;;
3689;SDS011;1861;50.240;8.596;2023-04-01T17:17:08;0.70;;;0.50;;
3689;SDS011;1861;50.240;8.596;2023-04-01T17:22:55;0.73;;;0.70;;
3689;SDS011;1861;50.240;8.596;2023-04-01T17:25:32;3.17;;;0.80;;
3689;SDS011;1861;50.240;8.596;2023-04-01T17:28:09;1.23;;;0.63;;
3689;SDS011;1861;50.240;8.596;2023-04-01T17:30:53;0.90;;;0.70;;
3689;SDS011;1861;50.240;8.596;2023-04-01T17:36:30;0.70;;;0.60;;
3689;SDS011;1861;50.240;8.596;2023-04-01T17:42:07;1.57;;;0.60;;
3689;SDS011;1861;50.240;8.596;2023-04-01T17:44:45;0.90;;;0.77;;
3689;SDS011;1861;50.240;8.596;2023-04-01T17:47:30;1.40;;;1.30;;
3689;SDS011;1861;50.240;8.596;2023-04-01T17:50:20;2.57;;;2.20;;
3689;SDS011;1861;50.240;8.596;2023-04-01T17:52:57;2.27;;;1.83;;
3689;SDS011;1861;50.240;8.596;2023-04-01T17:55:48;1.67;;;1.30;;
3689;SDS011;1861;50.240;8.596;2023-04-01T17:58:27;2.27;;;1.60;;
3689;SDS011;1861;50.240;8.596;2023-04-01T18:01:09;1.43;;;1.13;;
3689;SDS011;1861;50.240;8.596;2023-04-01T18:06:47;2.30;;;1.60;;
3689;SDS011;1861;50.240;8.596;2023-04-01T18:09:29;2.27;;;1.40;;